This is the latest recevied weather packets stored in our database for station/object W0WC. If no packets are shown the sender has not sent any weather packets the latest 10 day(s).
| Time | Temp. | Humidity | Pressure | Rain* | Wind** | Luminosity | Snow |
|---|---|---|---|---|---|---|---|
| 1778183630 | 20.56° C | 41% | 1016.7 hPa | 0 mm | - | 788 W/m² | - |
| 1778183328 | 19.44° C | 42% | 1016.7 hPa | 0 mm | - | 831 W/m² | - |
| 1778183024 | 20° C | 41% | 1017 hPa | 0 mm | - | 384 W/m² | - |
| 1778182720 | 20° C | 41% | 1016.8 hPa | 0 mm | - | 891 W/m² | - |
| 1778182418 | 20.56° C | 42% | 1016.9 hPa | 0 mm | - | 594 W/m² | - |
| 1778182113 | 20° C | 43% | 1016.9 hPa | 0 mm | - | 865 W/m² | - |
| 1778181810 | 20° C | 42% | 1016.9 hPa | 0 mm | - | 945 W/m² | - |
| 1778181507 | 19.44° C | 41% | 1017 hPa | 0 mm | - | 860 W/m² | - |
| 1778181203 | 18.89° C | 42% | 1017 hPa | 0 mm | - | 879 W/m² | - |
| 1778180900 | 20° C | 41% | 1016.9 hPa | 0 mm | - | 221 W/m² | - |
| 1778180598 | 19.44° C | 43% | 1017 hPa | 0 mm | - | 823 W/m² | - |
| 1778180297 | 20° C | 40% | 1017 hPa | 0 mm | - | 847 W/m² | - |
| 1778179993 | 19.44° C | 41% | 1017.3 hPa | 0 mm | - | 825 W/m² | - |
| 1778179690 | 19.44° C | 42% | 1017.2 hPa | 0 mm | - | 824 W/m² | - |
| 1778179389 | 20° C | 43% | 1017.3 hPa | 0 mm | - | 850 W/m² | - |
| 1778179085 | 19.44° C | 44% | 1017.3 hPa | 0 mm | - | 831 W/m² | - |
| 1778178782 | 19.44° C | 42% | 1017.4 hPa | 0 mm | - | 818 W/m² | - |
| 1778178479 | 19.44° C | 40% | 1017.4 hPa | 0 mm | - | 816 W/m² | - |
| 1778178174 | 19.44° C | 43% | 1017.5 hPa | 0 mm | - | 818 W/m² | - |
| 1778177871 | 18.89° C | 44% | 1017.3 hPa | 0 mm | - | 838 W/m² | - |
| 1778177567 | 19.44° C | 41% | 1017.6 hPa | 0 mm | - | 834 W/m² | - |
| 1778177264 | 18.33° C | 43% | 1017.5 hPa | 0 mm | - | 863 W/m² | - |
| 1778176961 | 18.33° C | 40% | 1017.3 hPa | 0 mm | - | 819 W/m² | - |
| 1778176656 | 18.89° C | 40% | 1017.9 hPa | 0 mm | - | 814 W/m² | - |
| 1778176354 | 18.89° C | 41% | 1017.8 hPa | 0 mm | - | 809 W/m² | - |
* Rain latest hour (hover to see other rain measurements)
** Current wind speed in m/s (hover to see current wind gust speed)